Rancho Dominguez, California
Current Conditions -  °F | °C
As of 9:53 PM on Thursday 27 Nov 2014 (Local Time) from KHHR Reporting Station
Clear Clear  
Wind Chill: 63°   Ceiling: Unl
Heat Index: 63°   Visibility: 10mi
Dew Point: 52°   Wind: 0mph
Humidity: 67%   Direction: NA
Pressure: 30.01"   Gusts: NA
Location:  33.8732°N, 118.264°W
Report Text: KHHR 280553Z AUTO 00000KT 10SM CLR 17/11 A3001 RMK AO2 SLP162 T01720111 10250 20172 50001
Loading
Personal Weather Stations






























Interactive Weather Map New forecast layout! Learn more

10-Day Weather Forecast

Advertisements
Track Severe Weather on mobile